createdAt,value
2023-10-13T00:00:38.198Z,14.90
2023-10-13T00:03:06.121Z,16.00
2023-10-13T00:05:33.135Z,13.80
2023-10-13T00:08:03.276Z,14.60
2023-10-13T00:10:30.815Z,13.20
2023-10-13T00:13:12.404Z,13.90
2023-10-13T00:18:12.875Z,13.90
2023-10-13T00:20:40.929Z,13.50
2023-10-13T00:23:07.620Z,12.50
2023-10-13T00:25:43.840Z,12.80
2023-10-13T00:28:10.481Z,13.80
2023-10-13T00:30:39.593Z,14.20
2023-10-13T00:33:06.020Z,13.20
2023-10-13T00:35:42.716Z,13.50
2023-10-13T00:38:17.487Z,12.60
2023-10-13T00:40:53.154Z,12.70
2023-10-13T00:43:20.563Z,13.10
2023-10-13T00:45:57.855Z,12.90
2023-10-13T00:48:29.292Z,13.20
2023-10-13T00:50:57.758Z,14.40
2023-10-13T00:53:25.656Z,13.90
2023-10-13T00:55:56.179Z,14.10
2023-10-13T00:58:23.059Z,13.20
2023-10-13T01:00:56.883Z,13.10
2023-10-13T01:03:27.184Z,12.90
2023-10-13T01:05:59.112Z,14.20
2023-10-13T01:08:38.264Z,14.30
2023-10-13T01:11:08.692Z,12.50
2023-10-13T01:13:38.299Z,14.10
2023-10-13T01:16:07.669Z,13.10
2023-10-13T01:18:47.599Z,13.50
2023-10-13T01:21:17.499Z,14.20
2023-10-13T01:23:45.467Z,13.80
2023-10-13T01:26:13.867Z,13.40
2023-10-13T01:28:47.128Z,14.80
2023-10-13T01:31:18.092Z,14.40
2023-10-13T01:33:44.675Z,14.20
2023-10-13T01:36:12.602Z,14.50
2023-10-13T01:38:41.584Z,15.30
2023-10-13T01:41:09.448Z,14.60
2023-10-13T01:43:35.843Z,15.00
2023-10-13T01:46:03.847Z,14.90
2023-10-13T01:48:33.496Z,14.60
2023-10-13T01:51:05.957Z,15.30
2023-10-13T01:53:32.474Z,15.40
2023-10-13T01:55:58.936Z,16.00
2023-10-13T01:58:27.908Z,16.30
2023-10-13T02:00:57.030Z,16.10
2023-10-13T02:03:23.530Z,14.70
2023-10-13T02:05:53.158Z,16.10
2023-10-13T02:08:24.466Z,16.20
2023-10-13T02:10:58.296Z,16.40
2023-10-13T02:13:25.663Z,15.70
2023-10-13T02:15:56.844Z,15.00
2023-10-13T02:18:26.856Z,14.60
2023-10-13T02:20:57.754Z,14.20
2023-10-13T02:23:25.330Z,15.30
2023-10-13T02:26:00.977Z,14.40
2023-10-13T02:28:30.105Z,15.20
2023-10-13T02:30:58.143Z,14.10
2023-10-13T02:33:30.311Z,14.50
2023-10-13T02:35:58.203Z,15.40
2023-10-13T02:38:33.696Z,14.90
2023-10-13T02:41:06.299Z,15.10
2023-10-13T02:43:36.814Z,14.80
2023-10-13T02:46:04.293Z,14.50
2023-10-13T02:48:46.480Z,15.00
2023-10-13T02:51:15.880Z,14.90
2023-10-13T02:53:52.705Z,15.70
2023-10-13T02:56:23.033Z,16.30
2023-10-13T02:58:53.902Z,15.00
2023-10-13T03:01:20.793Z,15.70
2023-10-13T03:03:52.118Z,15.90
2023-10-13T03:06:22.025Z,16.20
2023-10-13T03:08:48.703Z,16.90
2023-10-13T03:11:18.133Z,17.40
2023-10-13T03:13:45.793Z,18.30
2023-10-13T03:16:16.615Z,16.60
2023-10-13T03:18:52.926Z,17.00
2023-10-13T03:21:28.699Z,16.90
2023-10-13T03:24:05.044Z,20.10
2023-10-13T03:26:36.960Z,17.80
2023-10-13T03:29:07.966Z,18.30
2023-10-13T03:31:37.686Z,18.50
2023-10-13T03:34:12.728Z,18.50
2023-10-13T03:37:11.439Z,19.00
2023-10-13T03:39:38.064Z,19.30
2023-10-13T03:42:06.065Z,19.70
2023-10-13T03:44:33.187Z,18.50
2023-10-13T03:47:18.771Z,19.00
2023-10-13T03:49:46.030Z,18.80
2023-10-13T03:52:14.079Z,17.60
2023-10-13T03:54:41.466Z,18.40
2023-10-13T03:57:14.214Z,19.20
2023-10-13T03:59:40.698Z,20.50
2023-10-13T04:02:18.297Z,20.00
2023-10-13T04:04:54.939Z,20.10
2023-10-13T04:07:40.637Z,22.20
2023-10-13T04:10:40.643Z,21.50
2023-10-13T04:13:16.059Z,20.50
2023-10-13T04:16:04.300Z,19.70
2023-10-13T04:18:47.267Z,19.30
2023-10-13T04:21:33.973Z,21.10
2023-10-13T04:24:30.031Z,21.40
2023-10-13T04:27:12.202Z,21.60
2023-10-13T04:29:51.481Z,20.90
2023-10-13T04:32:31.226Z,20.70
2023-10-13T04:35:09.031Z,25.90
2023-10-13T04:37:50.885Z,25.80
2023-10-13T04:40:19.733Z,24.90
2023-10-13T04:42:50.338Z,21.40
2023-10-13T04:45:29.883Z,19.10
2023-10-13T04:48:18.784Z,20.80
2023-10-13T04:50:50.907Z,21.20
2023-10-13T04:53:34.573Z,20.40
2023-10-13T04:56:04.506Z,18.70
2023-10-13T04:58:34.195Z,20.80
2023-10-13T05:01:22.314Z,19.30
2023-10-13T05:04:08.361Z,20.30
2023-10-13T05:06:44.180Z,20.90
2023-10-13T05:09:30.756Z,21.20
2023-10-13T05:12:35.916Z,21.30
2023-10-13T05:15:23.128Z,31.30
2023-10-13T05:18:08.394Z,26.20
2023-10-13T05:20:53.294Z,23.80
2023-10-13T05:23:38.989Z,20.90
2023-10-13T05:26:24.384Z,21.40
2023-10-13T05:29:18.762Z,21.30
2023-10-13T05:32:11.309Z,23.70
2023-10-13T05:34:56.896Z,22.20
2023-10-13T05:37:53.320Z,22.40
2023-10-13T05:40:38.655Z,19.20
2023-10-13T05:43:23.864Z,20.10
2023-10-13T05:46:09.306Z,17.90
2023-10-13T05:49:03.403Z,16.90
2023-10-13T05:51:36.923Z,16.80
2023-10-13T05:54:16.447Z,15.70
2023-10-13T05:57:02.067Z,15.50
2023-10-13T05:59:48.254Z,16.00
2023-10-13T06:02:34.437Z,14.50
2023-10-13T06:05:23.813Z,14.40
2023-10-13T06:08:09.366Z,15.40
2023-10-13T06:10:55.195Z,15.70
2023-10-13T06:13:40.438Z,15.20
2023-10-13T06:16:27.651Z,16.00
2023-10-13T06:19:13.538Z,14.00
2023-10-13T06:21:58.911Z,15.50
2023-10-13T06:24:43.688Z,14.40
2023-10-13T06:27:29.280Z,14.60
2023-10-13T06:29:55.903Z,13.70
2023-10-13T06:32:29.346Z,12.50
2023-10-13T06:34:58.275Z,12.20
2023-10-13T06:37:32.088Z,12.10
2023-10-13T06:40:07.335Z,11.50
2023-10-13T06:42:42.899Z,13.00
2023-10-13T06:45:10.043Z,13.10
2023-10-13T06:47:46.017Z,10.90
2023-10-13T06:50:19.710Z,10.30
2023-10-13T06:52:49.626Z,9.90
2023-10-13T06:55:24.326Z,10.30
2023-10-13T06:57:52.127Z,10.40
2023-10-13T07:00:34.947Z,11.70
2023-10-13T07:03:08.142Z,12.60
2023-10-13T07:05:38.412Z,12.10
2023-10-13T07:08:09.474Z,11.40
2023-10-13T07:10:48.943Z,10.20
2023-10-13T07:13:39.798Z,12.50
2023-10-13T07:16:16.493Z,11.60
2023-10-13T07:18:56.347Z,11.40
2023-10-13T07:21:31.421Z,11.00
2023-10-13T07:24:08.379Z,10.60
2023-10-13T07:26:43.075Z,11.00
2023-10-13T07:29:10.648Z,11.10
2023-10-13T07:31:38.427Z,11.50
2023-10-13T07:34:28.164Z,11.70
2023-10-13T07:37:08.368Z,11.70
2023-10-13T07:39:35.819Z,12.30
2023-10-13T07:42:15.648Z,10.90
2023-10-13T07:44:46.376Z,11.20
2023-10-13T07:47:14.636Z,11.80
2023-10-13T07:49:41.446Z,10.70
2023-10-13T07:52:27.195Z,10.90
2023-10-13T07:55:25.117Z,11.00
2023-10-13T07:57:55.287Z,10.20
2023-10-13T08:00:28.104Z,10.90
2023-10-13T08:03:16.554Z,9.80
2023-10-13T08:05:59.098Z,11.30
2023-10-13T08:08:41.453Z,14.80
2023-10-13T08:11:11.783Z,10.20
2023-10-13T08:14:01.762Z,11.00
2023-10-13T08:16:46.590Z,10.90
2023-10-13T08:19:16.631Z,10.70
2023-10-13T08:21:54.921Z,11.10
2023-10-13T08:24:39.456Z,10.50
2023-10-13T08:27:16.242Z,10.00
2023-10-13T08:29:55.711Z,11.20
2023-10-13T08:32:36.907Z,10.20
2023-10-13T08:35:03.856Z,7.80
2023-10-13T08:37:35.381Z,9.00
2023-10-13T08:40:15.932Z,6.80
2023-10-13T08:42:48.556Z,7.20
2023-10-13T08:45:28.174Z,7.60
2023-10-13T08:48:14.777Z,7.70
2023-10-13T08:50:48.861Z,8.00
2023-10-13T08:53:29.003Z,8.30
2023-10-13T08:56:14.346Z,6.90
2023-10-13T08:58:55.552Z,7.90
2023-10-13T09:01:35.951Z,6.00
2023-10-13T09:04:19.689Z,5.40
2023-10-13T09:07:00.143Z,5.30
2023-10-13T09:09:27.812Z,11.20
2023-10-13T09:12:08.899Z,6.10
2023-10-13T09:14:45.599Z,5.10
2023-10-13T09:17:13.813Z,5.30
2023-10-13T09:19:50.844Z,5.00
2023-10-13T09:22:37.104Z,5.40
2023-10-13T09:25:13.813Z,4.20
2023-10-13T09:27:40.645Z,5.60
2023-10-13T09:30:10.641Z,5.00
2023-10-13T09:32:46.899Z,5.60
2023-10-13T09:35:23.416Z,4.70
2023-10-13T09:37:50.799Z,4.20
2023-10-13T09:40:33.642Z,5.10
2023-10-13T09:43:09.082Z,4.80
2023-10-13T09:46:02.315Z,4.70
2023-10-13T09:48:33.570Z,4.70
2023-10-13T09:51:03.805Z,5.40
2023-10-13T09:53:32.349Z,4.40
2023-10-13T09:56:20.553Z,4.90
2023-10-13T09:58:58.640Z,5.30
2023-10-13T10:01:33.358Z,4.90
2023-10-13T10:04:14.865Z,4.10
2023-10-13T10:06:45.314Z,5.60
2023-10-13T10:09:12.663Z,4.10
2023-10-13T10:12:03.903Z,4.30
2023-10-13T10:15:20.829Z,4.10
2023-10-13T10:17:50.373Z,4.00
2023-10-13T10:20:33.226Z,4.90
2023-10-13T10:23:00.275Z,4.00
2023-10-13T10:25:36.737Z,3.80
2023-10-13T10:28:08.209Z,3.70
2023-10-13T10:33:16.057Z,3.90
2023-10-13T10:35:44.286Z,74.20
2023-10-13T10:38:24.077Z,11.40
2023-10-13T10:41:01.667Z,4.90
2023-10-13T10:43:42.401Z,4.20
2023-10-13T10:46:14.972Z,3.10
2023-10-13T10:48:43.473Z,3.20
2023-10-13T10:51:24.217Z,3.80
2023-10-13T10:53:52.937Z,3.90
2023-10-13T10:56:26.500Z,4.20
2023-10-13T10:58:57.694Z,4.30
2023-10-13T11:01:25.343Z,4.50
2023-10-13T11:04:31.174Z,4.10
2023-10-13T11:07:00.996Z,3.50
2023-10-13T11:09:49.088Z,3.90
2023-10-13T11:12:16.646Z,4.20
2023-10-13T11:14:47.949Z,4.30
2023-10-13T11:17:38.855Z,3.90
2023-10-13T11:20:26.038Z,4.00
2023-10-13T11:22:53.203Z,3.90
2023-10-13T11:25:30.384Z,3.80
2023-10-13T11:27:59.341Z,6.10
2023-10-13T11:30:31.771Z,4.00
2023-10-13T11:33:13.571Z,4.20
2023-10-13T11:38:25.552Z,4.20
2023-10-13T11:41:05.051Z,4.00
2023-10-13T11:43:56.070Z,3.90
2023-10-13T11:46:36.416Z,4.40
2023-10-13T11:49:28.645Z,3.90
2023-10-13T11:52:09.599Z,3.80
2023-10-13T11:54:42.479Z,3.60
2023-10-13T11:57:09.321Z,3.80
2023-10-13T11:59:41.372Z,4.00
2023-10-13T12:02:10.970Z,4.00
2023-10-13T12:04:41.359Z,3.90
2023-10-13T12:07:20.737Z,4.10
2023-10-13T12:09:57.857Z,3.70
2023-10-13T12:12:25.198Z,4.00
2023-10-13T12:14:58.105Z,4.10
2023-10-13T12:17:32.093Z,3.90
2023-10-13T12:20:05.416Z,3.40
2023-10-13T12:22:52.223Z,4.00
2023-10-13T12:25:34.204Z,4.30
2023-10-13T12:28:18.965Z,3.80
2023-10-13T12:30:55.113Z,4.20
2023-10-13T12:33:24.997Z,4.20
2023-10-13T12:36:07.374Z,3.60
2023-10-13T12:38:47.227Z,3.70
2023-10-13T12:41:39.029Z,4.40
2023-10-13T12:44:25.097Z,3.50
2023-10-13T12:47:10.953Z,3.70
2023-10-13T12:49:44.817Z,3.70
2023-10-13T12:52:26.229Z,3.70
2023-10-13T12:54:59.368Z,3.70
2023-10-13T12:57:29.148Z,3.40
2023-10-13T12:59:56.174Z,3.30
2023-10-13T13:02:25.512Z,3.20
2023-10-13T13:05:02.088Z,3.80
2023-10-13T13:07:29.873Z,3.10
2023-10-13T13:09:59.271Z,3.90
2023-10-13T13:12:28.764Z,3.50
2023-10-13T13:14:55.745Z,3.00
2023-10-13T13:17:23.170Z,3.20
2023-10-13T13:19:50.161Z,3.30
2023-10-13T13:22:18.301Z,3.40
2023-10-13T13:24:45.371Z,3.10
2023-10-13T13:27:17.840Z,2.90
2023-10-13T13:29:44.954Z,3.50
2023-10-13T13:32:19.463Z,4.10
2023-10-13T13:34:55.163Z,3.60
2023-10-13T13:37:22.285Z,3.40
2023-10-13T13:39:49.076Z,3.50
2023-10-13T13:42:17.970Z,3.30
2023-10-13T13:44:47.137Z,3.40
2023-10-13T13:47:14.455Z,4.10
2023-10-13T13:49:46.467Z,4.00
2023-10-13T13:52:23.803Z,4.30
2023-10-13T13:54:50.430Z,4.60
2023-10-13T13:57:17.988Z,4.70
2023-10-13T13:59:45.772Z,4.20
2023-10-13T14:02:21.606Z,4.00
2023-10-13T14:04:50.916Z,4.00
2023-10-13T14:07:20.563Z,4.20
2023-10-13T14:09:51.831Z,4.60
2023-10-13T14:12:41.954Z,3.80
2023-10-13T14:15:20.344Z,4.30
2023-10-13T14:17:49.584Z,4.80
2023-10-13T14:20:19.456Z,4.10
2023-10-13T14:22:49.035Z,4.20
2023-10-13T14:25:16.503Z,5.20
2023-10-13T14:27:43.481Z,4.50
2023-10-13T14:30:10.550Z,4.30
2023-10-13T14:32:40.839Z,4.80
2023-10-13T14:35:17.251Z,5.10
2023-10-13T14:37:44.101Z,4.30
2023-10-13T14:40:15.704Z,4.60
2023-10-13T14:45:13.308Z,4.40
2023-10-13T14:47:41.119Z,4.70
2023-10-13T14:50:09.487Z,5.00
2023-10-13T14:52:36.158Z,5.60
2023-10-13T14:55:07.632Z,5.40
2023-10-13T14:57:38.149Z,7.90
2023-10-13T15:00:17.120Z,6.10
2023-10-13T15:02:44.717Z,15.80
2023-10-13T15:05:16.966Z,17.00
2023-10-13T15:07:45.654Z,10.80
2023-10-13T15:10:15.637Z,10.70
2023-10-13T15:12:45.191Z,15.50
2023-10-13T15:15:16.563Z,13.70
2023-10-13T15:17:44.000Z,10.00
2023-10-13T15:20:16.395Z,11.30
2023-10-13T15:22:44.229Z,11.70
2023-10-13T15:25:31.119Z,8.70
2023-10-13T15:28:06.020Z,5.60
2023-10-13T15:30:45.998Z,6.10
2023-10-13T15:33:13.458Z,8.20
2023-10-13T15:35:45.956Z,9.20
2023-10-13T15:38:12.697Z,11.50
2023-10-13T15:40:43.304Z,15.40
2023-10-13T15:43:12.862Z,14.60
2023-10-13T15:45:46.505Z,15.50
2023-10-13T15:48:18.656Z,13.30
2023-10-13T15:50:50.306Z,9.00
2023-10-13T15:53:16.938Z,9.00
2023-10-13T15:55:46.289Z,10.70
2023-10-13T15:58:13.857Z,11.10
2023-10-13T16:00:40.595Z,12.30
2023-10-13T16:03:11.184Z,14.90
2023-10-13T16:05:40.008Z,18.50
2023-10-13T16:08:11.448Z,16.20
2023-10-13T16:10:39.722Z,15.20
2023-10-13T16:13:10.522Z,16.80
2023-10-13T16:15:43.098Z,18.50
2023-10-13T16:18:10.437Z,17.00
2023-10-13T16:20:37.911Z,19.90
2023-10-13T16:23:05.978Z,22.60
2023-10-13T16:25:32.966Z,20.10
2023-10-13T16:28:00.094Z,21.30
2023-10-13T16:30:29.037Z,17.60
2023-10-13T16:32:55.812Z,11.20
2023-10-13T16:35:22.506Z,10.40
2023-10-13T16:37:51.671Z,11.70
2023-10-13T16:40:18.758Z,11.60
2023-10-13T16:42:46.823Z,13.00
2023-10-13T16:45:20.764Z,12.10
2023-10-13T16:47:48.431Z,11.50
2023-10-13T16:50:15.140Z,11.40
2023-10-13T16:52:41.899Z,10.90
2023-10-13T16:55:09.525Z,13.30
2023-10-13T16:57:36.703Z,14.70
2023-10-13T17:00:07.373Z,12.50
2023-10-13T17:02:37.508Z,13.50
2023-10-13T17:05:05.069Z,13.20
2023-10-13T17:07:31.906Z,12.10
2023-10-13T17:09:58.782Z,12.00
2023-10-13T17:12:25.751Z,12.10
2023-10-13T17:14:53.837Z,12.00
2023-10-13T17:17:22.037Z,12.50
2023-10-13T17:19:50.130Z,11.50
2023-10-13T17:22:17.331Z,14.00
2023-10-13T17:24:44.058Z,15.50
2023-10-13T17:27:10.924Z,17.80
2023-10-13T17:29:37.911Z,22.40
2023-10-13T17:32:04.730Z,20.40
2023-10-13T17:34:31.781Z,18.70
2023-10-13T17:36:58.805Z,17.90
2023-10-13T17:39:26.835Z,19.10
2023-10-13T17:41:54.186Z,19.10
2023-10-13T17:44:23.256Z,17.90
2023-10-13T17:46:50.148Z,18.40
2023-10-13T17:49:19.045Z,17.20
2023-10-13T17:51:45.664Z,17.40
2023-10-13T17:54:12.366Z,19.20
2023-10-13T17:56:39.059Z,18.80
2023-10-13T17:59:05.640Z,20.20
2023-10-13T18:01:32.861Z,21.00
2023-10-13T18:04:04.696Z,18.80
2023-10-13T18:06:31.787Z,17.30
2023-10-13T18:08:58.371Z,17.40
2023-10-13T18:11:25.732Z,17.20
2023-10-13T18:13:52.720Z,18.40
2023-10-13T18:16:21.529Z,16.80
2023-10-13T18:18:50.969Z,14.90
2023-10-13T18:21:18.544Z,16.10
2023-10-13T18:23:48.545Z,16.50
2023-10-13T18:26:20.311Z,15.50
2023-10-13T18:28:50.735Z,15.30
2023-10-13T18:31:18.389Z,18.50
2023-10-13T18:33:45.540Z,21.40
2023-10-13T18:36:16.916Z,21.40
2023-10-13T18:38:45.411Z,18.50
2023-10-13T18:41:12.717Z,13.90
2023-10-13T18:43:42.440Z,14.50
2023-10-13T18:46:11.724Z,14.10
2023-10-13T18:48:45.469Z,15.60
2023-10-13T18:51:16.508Z,15.30
2023-10-13T18:53:44.732Z,15.10
2023-10-13T18:56:24.987Z,14.20
2023-10-13T18:58:55.465Z,12.80
2023-10-13T19:01:26.420Z,12.00
2023-10-13T19:04:00.358Z,13.60
2023-10-13T19:06:30.797Z,15.20
2023-10-13T19:09:04.967Z,16.60
2023-10-13T19:11:38.018Z,16.30
2023-10-13T19:14:10.668Z,14.80
2023-10-13T19:16:40.893Z,16.50
2023-10-13T19:19:07.796Z,15.80
2023-10-13T19:21:37.089Z,17.90
2023-10-13T19:24:04.538Z,18.40
2023-10-13T19:26:31.370Z,20.10
2023-10-13T19:28:58.403Z,21.40
2023-10-13T19:31:26.576Z,19.60
2023-10-13T19:33:57.557Z,19.90
2023-10-13T19:36:24.314Z,20.20
2023-10-13T19:38:52.043Z,19.80
2023-10-13T19:41:20.314Z,19.80
2023-10-13T19:43:48.188Z,21.70
2023-10-13T19:46:15.773Z,22.70
2023-10-13T19:48:42.627Z,21.60
2023-10-13T19:51:11.250Z,21.90
2023-10-13T19:53:41.665Z,23.50
2023-10-13T19:56:26.602Z,23.60
2023-10-13T19:58:53.184Z,19.90
2023-10-13T20:01:21.983Z,16.00
2023-10-13T20:03:57.782Z,16.20
2023-10-13T20:06:25.912Z,15.50
2023-10-13T20:08:53.795Z,15.20
2023-10-13T20:11:25.538Z,16.30
2023-10-13T20:13:52.559Z,15.40
2023-10-13T20:16:24.003Z,15.90
2023-10-13T20:18:54.660Z,15.30
2023-10-13T20:21:24.800Z,17.60
2023-10-13T20:23:59.617Z,18.00
2023-10-13T20:26:30.319Z,19.10
2023-10-13T20:28:59.302Z,19.20
2023-10-13T20:31:26.836Z,18.20
2023-10-13T20:33:55.264Z,19.40
2023-10-13T20:36:24.950Z,18.80
2023-10-13T20:38:58.771Z,19.60
2023-10-13T20:41:28.239Z,19.50
2023-10-13T20:43:55.423Z,20.10
2023-10-13T20:46:21.889Z,20.50
2023-10-13T20:48:48.454Z,23.30
2023-10-13T20:51:15.217Z,25.30
2023-10-13T20:53:43.254Z,21.50
2023-10-13T20:56:16.385Z,21.20
2023-10-13T20:58:56.939Z,19.80
2023-10-13T21:01:23.600Z,21.50
2023-10-13T21:03:50.431Z,22.10
2023-10-13T21:06:19.420Z,22.30
2023-10-13T21:08:46.383Z,22.10
2023-10-13T21:11:17.188Z,21.80
2023-10-13T21:13:44.137Z,21.50
2023-10-13T21:16:11.676Z,21.10
2023-10-13T21:18:42.194Z,20.40
2023-10-13T21:21:18.765Z,21.00
2023-10-13T21:23:45.615Z,22.30
2023-10-13T21:26:39.806Z,20.80
2023-10-13T21:29:09.347Z,22.20
2023-10-13T21:31:38.666Z,22.20
2023-10-13T21:34:09.578Z,23.00
2023-10-13T21:36:39.077Z,22.30
2023-10-13T21:39:05.829Z,21.40
2023-10-13T21:41:37.562Z,22.20
2023-10-13T21:44:04.505Z,21.60
2023-10-13T21:46:31.062Z,21.10
2023-10-13T21:49:04.947Z,21.70
2023-10-13T21:51:32.284Z,20.10
2023-10-13T21:53:59.300Z,18.50
2023-10-13T21:56:25.822Z,19.90
2023-10-13T21:58:52.313Z,20.70
2023-10-13T22:01:21.695Z,20.40
2023-10-13T22:03:49.020Z,20.90
2023-10-13T22:06:16.100Z,20.40
2023-10-13T22:08:42.563Z,20.90
2023-10-13T22:11:09.175Z,20.30
2023-10-13T22:13:41.162Z,20.50
2023-10-13T22:16:11.954Z,19.80
2023-10-13T22:18:41.406Z,19.60
2023-10-13T22:21:08.159Z,20.80
2023-10-13T22:23:40.572Z,27.60
2023-10-13T22:26:13.815Z,26.80
2023-10-13T22:28:41.183Z,43.90
2023-10-13T22:31:11.868Z,62.40
2023-10-13T22:33:39.144Z,74.70
2023-10-13T22:36:08.006Z,63.80
2023-10-13T22:38:38.030Z,49.10
2023-10-13T22:41:05.887Z,44.80
2023-10-13T22:43:35.809Z,31.60
2023-10-13T22:46:02.917Z,27.10
2023-10-13T22:48:34.644Z,25.60
2023-10-13T22:51:02.582Z,22.20
2023-10-13T22:53:29.477Z,23.70
2023-10-13T22:55:56.441Z,23.40
2023-10-13T22:58:23.182Z,24.80
2023-10-13T23:00:49.622Z,24.30
2023-10-13T23:03:17.934Z,24.00
2023-10-13T23:06:07.762Z,24.20
2023-10-13T23:08:38.266Z,23.30
2023-10-13T23:11:15.735Z,24.70
2023-10-13T23:13:50.974Z,23.70
2023-10-13T23:16:22.168Z,22.10
2023-10-13T23:18:49.865Z,23.10
2023-10-13T23:21:17.295Z,23.70
2023-10-13T23:23:49.288Z,23.50
2023-10-13T23:26:15.936Z,23.30
2023-10-13T23:28:46.299Z,21.70
2023-10-13T23:31:14.353Z,21.50
2023-10-13T23:33:41.242Z,21.00
2023-10-13T23:36:11.643Z,20.60
2023-10-13T23:38:41.170Z,19.80
2023-10-13T23:41:13.535Z,21.20
2023-10-13T23:43:47.353Z,21.30
2023-10-13T23:46:15.240Z,24.00
2023-10-13T23:48:45.173Z,22.20
2023-10-13T23:51:12.952Z,21.90
2023-10-13T23:53:45.523Z,21.60
2023-10-13T23:56:17.350Z,22.30
2023-10-13T23:58:58.388Z,20.40
